createdAt,value
2023-12-30T00:02:00.495Z,9
2023-12-30T00:05:17.687Z,9
2023-12-30T00:08:35.351Z,9.1
2023-12-30T00:11:52.797Z,9.1
2023-12-30T00:15:10.165Z,9.1
2023-12-30T00:16:48.316Z,9.1
2023-12-30T00:18:27.558Z,9.1
2023-12-30T00:21:45.018Z,9.1
2023-12-30T00:25:02.372Z,9.1
2023-12-30T00:28:19.746Z,9.1
2023-12-30T00:31:36.202Z,9.1
2023-12-30T00:33:22.998Z,9.1
2023-12-30T00:35:01.597Z,9
2023-12-30T00:36:40.386Z,9
2023-12-30T00:38:19.101Z,9
2023-12-30T00:39:57.804Z,9
2023-12-30T00:41:36.528Z,9
2023-12-30T00:43:15.175Z,9
2023-12-30T00:44:54.000Z,9
2023-12-30T00:46:32.784Z,8.9
2023-12-30T00:48:11.358Z,8.9
2023-12-30T00:49:48.576Z,8.9
2023-12-30T00:51:25.824Z,8.9
2023-12-30T00:53:04.481Z,8.9
2023-12-30T00:54:43.151Z,8.9
2023-12-30T00:56:21.863Z,8.9
2023-12-30T00:58:00.622Z,8.9
2023-12-30T00:59:39.333Z,8.8
2023-12-30T01:01:17.955Z,8.8
2023-12-30T01:02:56.372Z,8.8
2023-12-30T01:04:35.364Z,8.8
2023-12-30T01:06:14.056Z,8.8
2023-12-30T01:07:51.281Z,8.8
2023-12-30T01:09:28.533Z,8.8
2023-12-30T01:11:07.324Z,8.8
2023-12-30T01:12:53.910Z,8.8
2023-12-30T01:14:32.829Z,8.8
2023-12-30T01:16:11.319Z,8.8
2023-12-30T01:17:50.287Z,8.8
2023-12-30T01:19:29.020Z,8.8
2023-12-30T01:21:07.627Z,8.8
2023-12-30T01:22:46.329Z,8.8
2023-12-30T01:24:23.323Z,8.8
2023-12-30T01:26:00.788Z,8.8
2023-12-30T01:27:39.593Z,8.8
2023-12-30T01:29:18.318Z,8.8
2023-12-30T01:30:56.950Z,8.8
2023-12-30T01:32:35.688Z,8.8
2023-12-30T01:34:14.326Z,8.8
2023-12-30T01:35:52.974Z,8.8
2023-12-30T01:37:31.682Z,8.8
2023-12-30T01:39:10.397Z,8.8
2023-12-30T01:40:49.097Z,8.8
2023-12-30T01:42:26.377Z,8.8
2023-12-30T01:44:03.550Z,8.8
2023-12-30T01:45:42.252Z,8.7
2023-12-30T01:47:20.669Z,8.7
2023-12-30T01:48:59.697Z,8.7
2023-12-30T01:50:38.457Z,8.7
2023-12-30T01:52:25.283Z,8.7
2023-12-30T01:54:03.983Z,8.7
2023-12-30T01:55:42.735Z,8.7
2023-12-30T01:57:21.406Z,8.7
2023-12-30T01:58:58.719Z,8.6
2023-12-30T02:00:35.862Z,8.6
2023-12-30T02:02:14.561Z,8.6
2023-12-30T02:03:53.292Z,8.6
2023-12-30T02:05:32.024Z,8.6
2023-12-30T02:07:10.538Z,8.6
2023-12-30T02:08:49.312Z,8.5
2023-12-30T02:10:28.036Z,8.5
2023-12-30T02:12:06.420Z,8.5
2023-12-30T02:13:45.443Z,8.5
2023-12-30T02:15:24.073Z,8.5
2023-12-30T02:17:01.401Z,8.5
2023-12-30T02:18:38.602Z,8.5
2023-12-30T02:20:17.336Z,8.5
2023-12-30T02:21:56.055Z,8.5
2023-12-30T02:23:34.685Z,8.5
2023-12-30T02:25:13.393Z,8.5
2023-12-30T02:26:52.018Z,8.5
2023-12-30T02:28:30.824Z,8.5
2023-12-30T02:30:09.498Z,8.5
2023-12-30T02:31:47.895Z,8.4
2023-12-30T02:33:26.968Z,8.4
2023-12-30T02:35:04.165Z,8.4
2023-12-30T02:36:41.371Z,8.4
2023-12-30T02:38:20.173Z,8.3
2023-12-30T02:39:58.779Z,8.3
2023-12-30T02:41:37.368Z,8.3
2023-12-30T02:43:16.208Z,8.3
2023-12-30T02:44:54.806Z,8.3
2023-12-30T02:46:33.617Z,8.3
2023-12-30T02:48:12.339Z,8.2
2023-12-30T02:49:50.482Z,8.2
2023-12-30T02:51:27.349Z,8.2
2023-12-30T02:53:03.961Z,8.2
2023-12-30T02:54:40.740Z,8.2
2023-12-30T02:56:16.702Z,8.2
2023-12-30T02:57:53.168Z,8.2
2023-12-30T02:59:30.261Z,8.2
2023-12-30T03:01:06.976Z,8.2
2023-12-30T03:02:43.655Z,8.2
2023-12-30T03:04:20.455Z,8.2
2023-12-30T03:05:57.174Z,8.1
2023-12-30T03:07:33.997Z,8.2
2023-12-30T03:09:10.678Z,8.1
2023-12-30T03:10:47.373Z,8.1
2023-12-30T03:12:24.212Z,8.1
2023-12-30T03:14:00.995Z,8.2
2023-12-30T03:15:37.706Z,8.2
2023-12-30T03:17:14.462Z,8.1
2023-12-30T03:18:51.275Z,8.2
2023-12-30T03:20:27.927Z,8.2
2023-12-30T03:22:04.712Z,8.2
2023-12-30T03:23:41.417Z,8.2
2023-12-30T03:25:18.232Z,8.2
2023-12-30T03:26:54.931Z,8.2
2023-12-30T03:28:31.665Z,8.2
2023-12-30T03:30:08.449Z,8.1
2023-12-30T03:31:45.144Z,8.1
2023-12-30T03:33:21.878Z,8.1
2023-12-30T03:34:58.661Z,8.1
2023-12-30T03:36:34.703Z,8.1
2023-12-30T03:38:11.444Z,8.1
2023-12-30T03:39:47.909Z,8.1
2023-12-30T03:41:24.909Z,8.1
2023-12-30T03:43:01.764Z,8.1
2023-12-30T03:44:38.399Z,8.1
2023-12-30T03:46:15.146Z,8.1
2023-12-30T03:47:51.761Z,8.1
2023-12-30T03:49:28.564Z,8.1
2023-12-30T03:51:05.378Z,8.1
2023-12-30T03:52:42.154Z,8.1
2023-12-30T03:54:18.836Z,8.1
2023-12-30T03:55:55.673Z,8.1
2023-12-30T03:57:32.375Z,8.1
2023-12-30T03:59:08.825Z,8.1
2023-12-30T04:00:45.849Z,8.1
2023-12-30T04:02:22.679Z,8.1
2023-12-30T04:03:59.399Z,8.1
2023-12-30T04:05:35.363Z,8.1
2023-12-30T04:07:12.061Z,8.1
2023-12-30T04:08:48.873Z,8.1
2023-12-30T04:10:25.672Z,8.1
2023-12-30T04:12:02.350Z,8.1
2023-12-30T04:13:39.156Z,8.1
2023-12-30T04:15:15.913Z,8.1
2023-12-30T04:16:52.565Z,8.1
2023-12-30T04:18:29.378Z,8.1
2023-12-30T04:20:06.089Z,8.2
2023-12-30T04:21:42.846Z,8.1
2023-12-30T04:23:19.341Z,8.2
2023-12-30T04:24:56.150Z,8.2
2023-12-30T04:26:33.113Z,8.2
2023-12-30T04:28:09.909Z,8.2
2023-12-30T04:29:46.546Z,8.3
2023-12-30T04:31:23.394Z,8.3
2023-12-30T04:32:59.981Z,8.3
2023-12-30T04:34:36.822Z,8.3
2023-12-30T04:36:13.601Z,8.3
2023-12-30T04:37:50.401Z,8.3
2023-12-30T04:39:27.216Z,8.2
2023-12-30T04:41:03.936Z,8.3
2023-12-30T04:42:40.600Z,8.3
2023-12-30T04:44:17.338Z,8.3
2023-12-30T04:45:54.156Z,8.3
2023-12-30T04:47:30.808Z,8.2
2023-12-30T04:49:07.545Z,8.3
2023-12-30T04:50:44.303Z,8.2
2023-12-30T04:52:20.752Z,8.2
2023-12-30T04:53:57.814Z,8.2
2023-12-30T04:55:34.558Z,8.1
2023-12-30T04:57:11.345Z,8.1
2023-12-30T04:58:48.094Z,8.1
2023-12-30T05:00:24.742Z,8.1
2023-12-30T05:02:01.548Z,8.1
2023-12-30T05:03:38.397Z,8.1
2023-12-30T05:05:50.176Z,8.1
2023-12-30T05:07:27.654Z,8.1
2023-12-30T05:09:04.930Z,8.1
2023-12-30T05:10:43.735Z,8.1
2023-12-30T05:12:22.013Z,8.1
2023-12-30T05:14:01.076Z,8.1
2023-12-30T05:15:39.708Z,8
2023-12-30T05:17:18.393Z,8
2023-12-30T05:18:57.213Z,8
2023-12-30T05:20:35.798Z,8
2023-12-30T05:22:14.498Z,8
2023-12-30T05:23:53.321Z,8
2023-12-30T05:25:30.320Z,8
2023-12-30T05:27:07.679Z,8
2023-12-30T05:28:46.426Z,8
2023-12-30T05:30:25.142Z,8
2023-12-30T05:32:03.841Z,8
2023-12-30T05:33:42.495Z,8
2023-12-30T05:35:21.169Z,8
2023-12-30T05:36:59.931Z,8
2023-12-30T05:38:38.593Z,8
2023-12-30T05:40:17.268Z,8
2023-12-30T05:41:55.987Z,8
2023-12-30T05:43:33.296Z,8
2023-12-30T05:45:10.138Z,8
2023-12-30T05:46:49.253Z,7.9
2023-12-30T05:48:36.121Z,7.9
2023-12-30T05:50:14.768Z,7.9
2023-12-30T05:51:53.388Z,7.9
2023-12-30T05:53:32.214Z,7.9
2023-12-30T05:55:10.950Z,7.9
2023-12-30T05:56:49.674Z,7.8
2023-12-30T05:58:28.184Z,7.8
2023-12-30T06:00:05.554Z,7.8
2023-12-30T06:01:42.709Z,7.8
2023-12-30T06:03:21.408Z,7.8
2023-12-30T06:05:00.127Z,7.8
2023-12-30T06:06:38.897Z,7.8
2023-12-30T06:08:17.561Z,7.8
2023-12-30T06:09:56.151Z,7.8
2023-12-30T06:11:34.941Z,7.8
2023-12-30T06:13:13.381Z,7.8
2023-12-30T06:14:52.343Z,7.8
2023-12-30T06:16:31.029Z,7.8
2023-12-30T06:18:08.345Z,7.8
2023-12-30T06:19:45.515Z,7.8
2023-12-30T06:21:24.088Z,7.8
2023-12-30T06:23:02.909Z,7.8
2023-12-30T06:24:41.599Z,7.8
2023-12-30T06:26:19.969Z,7.8
2023-12-30T06:27:58.744Z,7.8
2023-12-30T06:29:37.657Z,7.8
2023-12-30T06:31:16.366Z,7.8
2023-12-30T06:32:55.031Z,7.8
2023-12-30T06:34:33.735Z,7.8
2023-12-30T06:36:10.963Z,7.8
2023-12-30T06:37:48.274Z,7.8
2023-12-30T06:39:26.971Z,7.8
2023-12-30T06:41:05.534Z,7.8
2023-12-30T06:42:44.328Z,7.8
2023-12-30T06:44:23.067Z,7.8
2023-12-30T06:46:01.799Z,7.8
2023-12-30T06:47:40.294Z,7.8
2023-12-30T06:49:19.134Z,7.8
2023-12-30T06:50:57.911Z,7.8
2023-12-30T06:52:36.527Z,7.8
2023-12-30T06:54:13.878Z,7.8
2023-12-30T06:55:50.833Z,7.8
2023-12-30T06:57:29.731Z,7.8
2023-12-30T06:59:08.442Z,7.8
2023-12-30T07:00:47.040Z,7.8
2023-12-30T07:02:25.778Z,7.8
2023-12-30T07:04:04.484Z,7.8
2023-12-30T07:05:43.304Z,7.8
2023-12-30T07:07:21.959Z,7.8
2023-12-30T07:09:00.554Z,7.8
2023-12-30T07:10:39.300Z,7.8
2023-12-30T07:12:16.564Z,7.8
2023-12-30T07:13:53.833Z,7.8
2023-12-30T07:15:32.452Z,7.8
2023-12-30T07:17:11.191Z,7.8
2023-12-30T07:18:49.942Z,7.8
2023-12-30T07:20:28.707Z,7.8
2023-12-30T07:22:07.304Z,7.8
2023-12-30T07:23:46.044Z,7.8
2023-12-30T07:25:24.660Z,7.8
2023-12-30T07:27:03.339Z,7.8
2023-12-30T07:28:42.094Z,7.8
2023-12-30T07:30:19.243Z,7.8
2023-12-30T07:31:56.554Z,7.8
2023-12-30T07:33:35.163Z,7.8
2023-12-30T07:35:14.016Z,7.8
2023-12-30T07:36:52.633Z,7.8
2023-12-30T07:38:31.334Z,7.8
2023-12-30T07:40:09.944Z,7.8
2023-12-30T07:41:48.702Z,7.8
2023-12-30T07:43:27.226Z,7.8
2023-12-30T07:45:06.144Z,7.8
2023-12-30T07:46:44.859Z,7.9
2023-12-30T07:48:22.128Z,7.9
2023-12-30T07:49:59.374Z,7.9
2023-12-30T07:51:38.026Z,7.9
2023-12-30T07:53:16.693Z,7.9
2023-12-30T07:54:55.399Z,7.8
2023-12-30T07:56:34.211Z,7.9
2023-12-30T07:58:12.871Z,7.9
2023-12-30T07:59:51.496Z,7.8
2023-12-30T08:01:30.193Z,7.9
2023-12-30T08:03:08.760Z,7.9
2023-12-30T08:04:47.598Z,7.9
2023-12-30T08:06:24.864Z,7.9
2023-12-30T08:08:01.919Z,8
2023-12-30T08:09:40.796Z,8
2023-12-30T08:11:19.525Z,8
2023-12-30T08:12:58.133Z,8
2023-12-30T08:14:36.931Z,8
2023-12-30T08:16:15.608Z,8
2023-12-30T08:17:54.265Z,8
2023-12-30T08:19:33.053Z,8
2023-12-30T08:21:11.809Z,8
2023-12-30T08:22:50.324Z,8
2023-12-30T08:24:27.505Z,8
2023-12-30T08:26:04.665Z,8
2023-12-30T08:27:43.518Z,8
2023-12-30T08:29:22.054Z,8
2023-12-30T08:31:00.934Z,8
2023-12-30T08:32:39.617Z,8
2023-12-30T08:34:17.765Z,8
2023-12-30T08:35:54.538Z,8
2023-12-30T08:37:31.214Z,8
2023-12-30T08:39:08.086Z,8
2023-12-30T08:40:44.884Z,7.9
2023-12-30T08:42:21.569Z,8
2023-12-30T08:43:58.305Z,8
2023-12-30T08:45:34.758Z,8
2023-12-30T08:47:11.751Z,8
2023-12-30T08:48:47.515Z,8
2023-12-30T08:50:24.441Z,8
2023-12-30T08:52:01.342Z,8
2023-12-30T08:53:37.830Z,8
2023-12-30T08:55:14.825Z,8.1
2023-12-30T08:56:51.549Z,8.1
2023-12-30T08:58:28.286Z,8.1
2023-12-30T09:00:05.055Z,8.1
2023-12-30T09:01:41.627Z,8.1
2023-12-30T09:03:18.534Z,8.1
2023-12-30T09:04:55.303Z,8.1
2023-12-30T09:06:31.738Z,8.2
2023-12-30T09:08:08.642Z,8.2
2023-12-30T09:09:45.615Z,8.2
2023-12-30T09:11:22.260Z,8.2
2023-12-30T09:12:59.117Z,8.3
2023-12-30T09:14:35.788Z,8.3
2023-12-30T09:16:12.551Z,8.3
2023-12-30T09:17:49.206Z,8.3
2023-12-30T09:19:25.983Z,8.3
2023-12-30T09:21:02.742Z,8.3
2023-12-30T09:22:39.267Z,8.3
2023-12-30T09:24:16.297Z,8.3
2023-12-30T09:25:53.013Z,8.3
2023-12-30T09:27:29.737Z,8.3
2023-12-30T09:29:06.643Z,8.3
2023-12-30T09:30:42.949Z,8.3
2023-12-30T09:32:19.872Z,8.3
2023-12-30T09:33:56.709Z,8.3
2023-12-30T09:35:32.749Z,8.3
2023-12-30T09:37:09.341Z,8.3
2023-12-30T09:38:46.278Z,8.3
2023-12-30T09:40:23.010Z,8.3
2023-12-30T09:41:59.824Z,8.3
2023-12-30T09:43:36.493Z,8.3
2023-12-30T09:45:13.082Z,8.3
2023-12-30T09:46:49.683Z,8.3
2023-12-30T09:48:26.776Z,8.3
2023-12-30T09:50:03.553Z,8.3
2023-12-30T09:51:40.215Z,8.3
2023-12-30T09:53:16.862Z,8.3
2023-12-30T09:54:53.752Z,8.4
2023-12-30T09:56:30.165Z,8.4
2023-12-30T09:58:07.281Z,8.4
2023-12-30T09:59:43.958Z,8.4
2023-12-30T10:01:20.585Z,8.5
2023-12-30T10:02:57.161Z,8.5
2023-12-30T10:04:33.918Z,8.5
2023-12-30T10:06:10.990Z,8.5
2023-12-30T10:07:47.752Z,8.5
2023-12-30T10:09:24.453Z,8.5
2023-12-30T10:11:01.167Z,8.5
2023-12-30T10:12:37.971Z,8.5
2023-12-30T10:14:14.691Z,8.5
2023-12-30T10:15:51.421Z,8.5
2023-12-30T10:17:28.162Z,8.5
2023-12-30T10:19:04.787Z,8.6
2023-12-30T10:20:41.520Z,8.6
2023-12-30T10:22:18.126Z,8.6
2023-12-30T10:23:55.229Z,8.6
2023-12-30T10:25:31.900Z,8.6
2023-12-30T10:27:08.665Z,8.6
2023-12-30T10:28:45.437Z,8.6
2023-12-30T10:30:21.922Z,8.6
2023-12-30T10:31:58.925Z,8.6
2023-12-30T10:33:35.336Z,8.6
2023-12-30T10:35:47.824Z,8.7
2023-12-30T10:37:24.780Z,8.7
2023-12-30T10:39:02.414Z,8.7
2023-12-30T10:40:40.973Z,8.7
2023-12-30T10:42:19.685Z,8.7
2023-12-30T10:43:58.367Z,8.7
2023-12-30T10:45:37.123Z,8.7
2023-12-30T10:47:15.836Z,8.7
2023-12-30T10:48:54.469Z,8.8
2023-12-30T10:50:33.177Z,8.8
2023-12-30T10:52:11.629Z,8.8
2023-12-30T10:53:50.600Z,8.8
2023-12-30T10:55:27.777Z,8.8
2023-12-30T10:57:05.092Z,8.9
2023-12-30T10:58:43.728Z,8.9
2023-12-30T11:00:22.523Z,8.9
2023-12-30T11:02:00.964Z,9
2023-12-30T11:03:39.837Z,9.1
2023-12-30T11:05:18.571Z,9.1
2023-12-30T11:06:57.310Z,9.1
2023-12-30T11:08:36.015Z,9
2023-12-30T11:10:14.654Z,9
2023-12-30T11:11:53.382Z,9
2023-12-30T11:13:30.614Z,9
2023-12-30T11:15:07.834Z,9.1
2023-12-30T11:16:46.348Z,9.1
2023-12-30T11:18:25.077Z,9.1
2023-12-30T11:20:04.019Z,9.1
2023-12-30T11:21:50.811Z,9.1
2023-12-30T11:23:29.584Z,9.1
2023-12-30T11:25:08.204Z,9.1
2023-12-30T11:26:46.961Z,9.1
2023-12-30T11:28:25.848Z,9.1
2023-12-30T11:30:02.627Z,9.1
2023-12-30T11:31:40.190Z,9.1
2023-12-30T11:33:18.675Z,9.1
2023-12-30T11:34:57.597Z,9.1
2023-12-30T11:36:36.052Z,9.2
2023-12-30T11:38:14.665Z,9.2
2023-12-30T11:39:53.658Z,9.2
2023-12-30T11:41:32.373Z,9.2
2023-12-30T11:43:11.018Z,9.2
2023-12-30T11:44:49.779Z,9.3
2023-12-30T11:46:28.503Z,9.3
2023-12-30T11:48:05.613Z,9.3
2023-12-30T11:49:43.001Z,9.3
2023-12-30T11:51:21.627Z,9.3
2023-12-30T11:53:00.311Z,9.3
2023-12-30T11:54:39.043Z,9.3
2023-12-30T11:56:17.608Z,9.3
2023-12-30T11:57:56.517Z,9.3
2023-12-30T11:59:35.147Z,9.3
2023-12-30T12:01:13.538Z,9.3
2023-12-30T12:02:52.422Z,9.4
2023-12-30T12:04:31.194Z,9.4
2023-12-30T12:06:08.542Z,9.4
2023-12-30T12:07:45.686Z,9.4
2023-12-30T12:09:24.411Z,9.4
2023-12-30T12:11:03.029Z,9.4
2023-12-30T12:12:41.796Z,9.4
2023-12-30T12:14:20.228Z,9.5
2023-12-30T12:15:59.170Z,9.5
2023-12-30T12:17:37.271Z,9.5
2023-12-30T12:19:14.156Z,9.5
2023-12-30T12:20:50.967Z,9.5
2023-12-30T12:22:27.627Z,9.6
2023-12-30T12:24:04.089Z,9.5
2023-12-30T12:25:41.164Z,9.6
2023-12-30T12:27:17.757Z,9.6
2023-12-30T12:28:54.642Z,9.6
2023-12-30T12:30:31.452Z,9.6
2023-12-30T12:32:07.999Z,9.6
2023-12-30T12:33:44.866Z,9.6
2023-12-30T12:35:21.577Z,9.6
2023-12-30T12:36:57.665Z,9.6
2023-12-30T12:38:34.422Z,9.6
2023-12-30T12:40:11.138Z,9.6
2023-12-30T12:41:47.977Z,9.6
2023-12-30T12:43:24.664Z,9.6
2023-12-30T12:45:01.350Z,9.6
2023-12-30T12:46:38.071Z,9.7
2023-12-30T12:48:14.886Z,9.7
2023-12-30T12:49:51.510Z,9.7
2023-12-30T12:51:28.399Z,9.8
2023-12-30T12:53:04.918Z,9.8
2023-12-30T12:54:41.552Z,9.8
2023-12-30T12:56:18.306Z,9.9
2023-12-30T12:57:55.244Z,9.9
2023-12-30T12:59:32.147Z,9.9
2023-12-30T13:01:08.553Z,10
2023-12-30T13:02:45.286Z,10
2023-12-30T13:04:22.365Z,10
2023-12-30T13:05:59.062Z,9.9
2023-12-30T13:07:35.631Z,10
2023-12-30T13:09:12.278Z,10
2023-12-30T13:10:49.257Z,9.9
2023-12-30T13:12:26.110Z,10
2023-12-30T13:14:02.793Z,9.9
2023-12-30T13:15:39.653Z,9.9
2023-12-30T13:17:16.383Z,9.9
2023-12-30T13:18:53.087Z,9.9
2023-12-30T13:20:29.804Z,9.9
2023-12-30T13:22:06.240Z,9.9
2023-12-30T13:23:43.339Z,9.9
2023-12-30T13:25:19.867Z,10
2023-12-30T13:26:56.469Z,10
2023-12-30T13:28:33.441Z,10
2023-12-30T13:30:09.964Z,10
2023-12-30T13:31:47.006Z,10
2023-12-30T13:33:23.816Z,10
2023-12-30T13:35:00.585Z,10
2023-12-30T13:37:12.646Z,10
2023-12-30T13:38:51.384Z,10
2023-12-30T13:40:28.165Z,10
2023-12-30T13:42:05.459Z,10
2023-12-30T13:43:44.109Z,10
2023-12-30T13:45:22.641Z,10
2023-12-30T13:47:01.561Z,10
2023-12-30T13:48:40.195Z,10
2023-12-30T13:50:18.964Z,10
2023-12-30T13:51:57.484Z,10
2023-12-30T13:53:36.307Z,10.1
2023-12-30T13:55:15.040Z,10
2023-12-30T13:56:53.398Z,10
2023-12-30T13:58:30.652Z,10
2023-12-30T14:00:07.992Z,10
2023-12-30T14:01:46.792Z,10
2023-12-30T14:03:25.281Z,10
2023-12-30T14:05:03.983Z,10.1
2023-12-30T14:06:42.827Z,10.4
2023-12-30T14:08:21.678Z,10.7
2023-12-30T14:10:00.500Z,10.8
2023-12-30T14:11:39.039Z,10.7
2023-12-30T14:13:17.578Z,10.6
2023-12-30T14:14:56.173Z,10.6
2023-12-30T14:16:33.750Z,10.6
2023-12-30T14:18:10.954Z,10.6
2023-12-30T14:19:49.674Z,10.4
2023-12-30T14:21:28.297Z,10.2
2023-12-30T14:23:06.748Z,10.2
2023-12-30T14:24:45.772Z,10.1
2023-12-30T14:26:24.374Z,10.1
2023-12-30T14:28:03.144Z,10.1
2023-12-30T14:29:41.792Z,10.1
2023-12-30T14:31:20.597Z,10
2023-12-30T14:32:59.261Z,10
2023-12-30T14:34:36.335Z,10
2023-12-30T14:36:13.705Z,10
2023-12-30T14:37:52.432Z,9.9
2023-12-30T14:39:31.118Z,9.9
2023-12-30T14:41:09.856Z,9.9
2023-12-30T14:42:48.419Z,9.9
2023-12-30T14:44:27.204Z,9.9
2023-12-30T14:46:05.910Z,9.9
2023-12-30T14:47:44.299Z,9.8
2023-12-30T14:49:23.337Z,9.8
2023-12-30T14:51:01.996Z,9.8
2023-12-30T14:52:39.363Z,9.8
2023-12-30T14:54:16.180Z,9.7
2023-12-30T14:55:55.093Z,9.7
2023-12-30T14:57:33.695Z,9.7
2023-12-30T14:59:12.597Z,9.7
2023-12-30T15:00:51.171Z,9.7
2023-12-30T15:02:29.990Z,9.6
2023-12-30T15:04:08.680Z,9.6
2023-12-30T15:05:47.099Z,9.6
2023-12-30T15:07:26.074Z,9.5
2023-12-30T15:09:04.756Z,9.5
2023-12-30T15:10:42.018Z,9.5
2023-12-30T15:12:18.937Z,9.5
2023-12-30T15:13:57.880Z,9.5
2023-12-30T15:15:36.637Z,9.5
2023-12-30T15:17:15.400Z,9.5
2023-12-30T15:18:54.074Z,9.4
2023-12-30T15:20:32.754Z,9.4
2023-12-30T15:22:11.229Z,9.4
2023-12-30T15:23:49.819Z,9.4
2023-12-30T15:25:28.531Z,9.4
2023-12-30T15:27:07.227Z,9.3
2023-12-30T15:28:44.468Z,9.3
2023-12-30T15:30:21.804Z,9.4
2023-12-30T15:32:00.682Z,9.3
2023-12-30T15:33:39.415Z,9.4
2023-12-30T15:35:17.889Z,9.4
2023-12-30T15:36:56.861Z,9.3
2023-12-30T15:38:35.264Z,9.3
2023-12-30T15:40:14.244Z,9.3
2023-12-30T15:41:52.998Z,9.3
2023-12-30T15:43:31.288Z,9.3
2023-12-30T15:45:10.314Z,9.3
2023-12-30T15:46:47.528Z,9.3
2023-12-30T15:48:24.734Z,9.3
2023-12-30T15:50:03.440Z,9.3
2023-12-30T15:51:42.062Z,9.3
2023-12-30T15:53:20.766Z,9.3
2023-12-30T15:54:59.257Z,9.3
2023-12-30T15:56:37.956Z,9.3
2023-12-30T15:58:17.007Z,9.2
2023-12-30T15:59:55.680Z,9.3
2023-12-30T16:01:34.322Z,9.3
2023-12-30T16:03:12.825Z,9.2
2023-12-30T16:04:50.300Z,9.3
2023-12-30T16:06:27.518Z,9.3
2023-12-30T16:08:06.270Z,9.3
2023-12-30T16:09:44.636Z,9.3
2023-12-30T16:11:23.336Z,9.3
2023-12-30T16:13:02.394Z,9.3
2023-12-30T16:14:41.040Z,9.3
2023-12-30T16:16:19.731Z,9.3
2023-12-30T16:17:58.429Z,9.3
2023-12-30T16:19:36.849Z,9.3
2023-12-30T16:21:15.807Z,9.3
2023-12-30T16:22:52.767Z,9.3
2023-12-30T16:24:29.990Z,9.3
2023-12-30T16:26:09.072Z,9.3
2023-12-30T16:27:47.712Z,9.3
2023-12-30T16:29:26.349Z,9.3
2023-12-30T16:31:05.172Z,9.3
2023-12-30T16:32:43.830Z,9.3
2023-12-30T16:34:22.196Z,9.4
2023-12-30T16:36:00.890Z,9.4
2023-12-30T16:37:39.630Z,9.4
2023-12-30T16:39:18.616Z,9.4
2023-12-30T16:40:55.553Z,9.4
2023-12-30T16:42:33.078Z,9.4
2023-12-30T16:44:11.737Z,9.3
2023-12-30T16:45:50.460Z,9.4
2023-12-30T16:47:29.208Z,9.4
2023-12-30T16:49:07.838Z,9.4
2023-12-30T16:50:46.363Z,9.4
2023-12-30T16:52:25.265Z,9.4
2023-12-30T16:54:04.004Z,9.4
2023-12-30T16:55:42.654Z,9.4
2023-12-30T16:57:21.469Z,9.5
2023-12-30T16:58:58.636Z,9.5
2023-12-30T17:00:35.636Z,9.5
2023-12-30T17:02:14.327Z,9.5
2023-12-30T17:03:53.032Z,9.5
2023-12-30T17:05:31.749Z,9.5
2023-12-30T17:07:10.415Z,9.5
2023-12-30T17:08:49.117Z,9.5
2023-12-30T17:10:27.822Z,9.5
2023-12-30T17:12:06.578Z,9.5
2023-12-30T17:13:45.231Z,9.5
2023-12-30T17:15:23.919Z,9.5
2023-12-30T17:17:01.157Z,9.5
2023-12-30T17:18:38.398Z,9.5
2023-12-30T17:20:17.113Z,9.5
2023-12-30T17:21:55.801Z,9.4
2023-12-30T17:23:34.534Z,9.5
2023-12-30T17:25:13.207Z,9.5
2023-12-30T17:26:51.914Z,9.5
2023-12-30T17:28:30.579Z,9.5
2023-12-30T17:30:09.277Z,9.5
2023-12-30T17:31:47.982Z,9.5
2023-12-30T17:33:26.750Z,9.5
2023-12-30T17:35:03.969Z,9.5
2023-12-30T17:36:41.170Z,9.5
2023-12-30T17:38:19.860Z,9.5
2023-12-30T17:39:58.557Z,9.5
2023-12-30T17:41:37.254Z,9.6
2023-12-30T17:43:15.967Z,9.5
2023-12-30T17:44:54.662Z,9.5
2023-12-30T17:46:33.373Z,9.5
2023-12-30T17:48:12.062Z,9.5
2023-12-30T17:49:50.748Z,9.5
2023-12-30T17:51:29.448Z,9.5
2023-12-30T17:53:06.697Z,9.5
2023-12-30T17:54:43.839Z,9.5
2023-12-30T17:56:22.182Z,9.5
2023-12-30T17:58:00.900Z,9.5
2023-12-30T17:59:39.681Z,9.4
2023-12-30T18:01:18.299Z,9.4
2023-12-30T18:02:57.068Z,9.4
2023-12-30T18:04:35.719Z,9.4
2023-12-30T18:06:14.396Z,9.3
2023-12-30T18:07:53.257Z,9.3
2023-12-30T18:09:31.972Z,9.3
2023-12-30T18:11:09.029Z,9.3
2023-12-30T18:12:46.269Z,9.4
2023-12-30T18:14:25.031Z,9.3
2023-12-30T18:16:03.659Z,9.3
2023-12-30T18:17:42.366Z,9.3
2023-12-30T18:19:21.219Z,9.2
2023-12-30T18:20:59.802Z,9.2
2023-12-30T18:22:38.466Z,9.2
2023-12-30T18:24:17.170Z,9.2
2023-12-30T18:25:55.990Z,9.2
2023-12-30T18:27:34.550Z,9.2
2023-12-30T18:29:11.802Z,9.2
2023-12-30T18:30:49.074Z,9.2
2023-12-30T18:32:27.737Z,9.2
2023-12-30T18:34:06.515Z,9.2
2023-12-30T18:35:45.143Z,9.1
2023-12-30T18:37:23.825Z,9.2
2023-12-30T18:39:02.658Z,9.2
2023-12-30T18:40:41.223Z,9.2
2023-12-30T18:42:19.931Z,9.1
2023-12-30T18:43:58.618Z,9.1
2023-12-30T18:45:37.318Z,9.1
2023-12-30T18:47:14.569Z,9.1
2023-12-30T18:48:51.813Z,9.1
2023-12-30T18:50:30.517Z,9.1
2023-12-30T18:52:09.216Z,9.1
2023-12-30T18:53:47.891Z,9.1
2023-12-30T18:55:26.601Z,9.1
2023-12-30T18:57:05.292Z,9.1
2023-12-30T18:58:43.999Z,9.1
2023-12-30T19:00:22.772Z,9.1
2023-12-30T19:02:01.401Z,9.1
2023-12-30T19:03:40.090Z,9.1
2023-12-30T19:05:17.330Z,9.1
2023-12-30T19:06:54.564Z,9
2023-12-30T19:08:33.277Z,9
2023-12-30T19:10:12.033Z,9
2023-12-30T19:11:50.669Z,9
2023-12-30T19:13:29.367Z,9
2023-12-30T19:15:08.080Z,9
2023-12-30T19:16:46.763Z,9
2023-12-30T19:18:25.521Z,8.9
2023-12-30T19:20:04.176Z,8.9
2023-12-30T19:21:42.871Z,9
2023-12-30T19:23:20.112Z,9
2023-12-30T19:24:57.346Z,8.9
2023-12-30T19:26:36.040Z,8.9
2023-12-30T19:28:14.793Z,8.9
2023-12-30T19:29:53.492Z,8.9
2023-12-30T19:31:32.158Z,8.9
2023-12-30T19:33:10.890Z,8.9
2023-12-30T19:34:49.543Z,8.9
2023-12-30T19:36:28.243Z,8.9
2023-12-30T19:38:06.946Z,8.9
2023-12-30T19:39:45.642Z,8.9
2023-12-30T19:41:22.961Z,8.9
2023-12-30T19:43:00.169Z,8.9
2023-12-30T19:44:38.838Z,8.9
2023-12-30T19:46:17.535Z,8.9
2023-12-30T19:47:56.233Z,8.9
2023-12-30T19:49:34.909Z,8.9
2023-12-30T19:51:13.621Z,8.8
2023-12-30T19:52:52.324Z,8.8
2023-12-30T19:54:31.022Z,8.8
2023-12-30T19:56:09.749Z,8.8
2023-12-30T19:57:48.481Z,8.7
2023-12-30T19:59:25.658Z,8.7
2023-12-30T20:01:02.891Z,8.7
2023-12-30T20:02:41.602Z,8.7
2023-12-30T20:04:20.293Z,8.7
2023-12-30T20:05:59.062Z,8.7
2023-12-30T20:07:37.688Z,8.7
2023-12-30T20:09:16.382Z,8.7
2023-12-30T20:10:55.102Z,8.7
2023-12-30T20:12:33.784Z,8.6
2023-12-30T20:14:12.479Z,8.6
2023-12-30T20:15:51.174Z,8.6
2023-12-30T20:17:28.405Z,8.6
2023-12-30T20:19:05.668Z,8.6
2023-12-30T20:20:44.424Z,8.5
2023-12-30T20:22:23.046Z,8.5
2023-12-30T20:24:01.736Z,8.6
2023-12-30T20:25:40.440Z,8.6
2023-12-30T20:27:19.139Z,8.5
2023-12-30T20:28:57.845Z,8.5
2023-12-30T20:30:36.603Z,8.6
2023-12-30T20:32:15.226Z,8.6
2023-12-30T20:33:53.989Z,8.6
2023-12-30T20:35:31.172Z,8.6
2023-12-30T20:37:08.420Z,8.5
2023-12-30T20:38:47.124Z,8.6
2023-12-30T20:40:25.823Z,8.5
2023-12-30T20:42:04.512Z,8.5
2023-12-30T20:43:43.217Z,8.5
2023-12-30T20:45:21.911Z,8.5
2023-12-30T20:47:00.610Z,8.5
2023-12-30T20:48:39.309Z,8.5
2023-12-30T20:50:18.008Z,8.5
2023-12-30T20:51:56.713Z,8.4
2023-12-30T20:53:34.059Z,8.5
2023-12-30T20:55:11.198Z,8.5
2023-12-30T20:56:49.887Z,8.5
2023-12-30T20:58:28.580Z,8.5
2023-12-30T21:00:07.291Z,8.5
2023-12-30T21:01:45.986Z,8.5
2023-12-30T21:03:24.685Z,8.6
2023-12-30T21:05:03.453Z,8.5
2023-12-30T21:06:42.085Z,8.5
2023-12-30T21:08:20.829Z,8.5
2023-12-30T21:09:59.466Z,8.6
2023-12-30T21:11:36.723Z,8.5
2023-12-30T21:13:13.979Z,8.5
2023-12-30T21:14:52.655Z,8.5
2023-12-30T21:16:31.351Z,8.4
2023-12-30T21:18:10.121Z,8.5
2023-12-30T21:19:48.747Z,8.6
2023-12-30T21:21:27.443Z,8.6
2023-12-30T21:23:06.160Z,8.5
2023-12-30T21:24:44.865Z,8.5
2023-12-30T21:26:23.552Z,8.5
2023-12-30T21:28:02.242Z,8.5
2023-12-30T21:29:39.616Z,8.4
2023-12-30T21:32:19.501Z,8.4
2023-12-30T21:35:36.813Z,8.4
2023-12-30T21:38:54.220Z,8.5
2023-12-30T21:42:11.605Z,8.5
2023-12-30T21:45:29.157Z,8.4
2023-12-30T21:47:07.239Z,8.4
2023-12-30T21:48:46.408Z,8.4
2023-12-30T21:52:03.803Z,8.5
2023-12-30T21:55:21.193Z,8.5
2023-12-30T21:58:38.593Z,8.5
2023-12-30T22:01:55.988Z,8.5
2023-12-30T22:05:13.382Z,8.6
2023-12-30T22:08:30.839Z,8.5
2023-12-30T22:14:16.457Z,8.6
2023-12-30T22:17:33.823Z,8.6
2023-12-30T22:20:01.206Z,8.6
2023-12-30T22:21:39.463Z,8.6
2023-12-30T22:24:56.831Z,8.6
2023-12-30T22:28:14.232Z,8.6
2023-12-30T22:31:31.637Z,8.5
2023-12-30T22:34:48.153Z,8.6
2023-12-30T22:36:34.966Z,8.6
2023-12-30T22:38:13.623Z,8.5
2023-12-30T22:39:52.362Z,8.5
2023-12-30T22:41:31.022Z,8.5
2023-12-30T22:43:09.762Z,8.6
2023-12-30T22:44:48.412Z,8.5
2023-12-30T22:46:27.127Z,8.5
2023-12-30T22:48:05.876Z,8.5
2023-12-30T22:49:44.516Z,8.5
2023-12-30T22:51:23.213Z,8.5
2023-12-30T22:53:00.458Z,8.5
2023-12-30T22:54:37.264Z,8.5
2023-12-30T22:56:15.962Z,8.5
2023-12-30T22:57:54.725Z,8.5
2023-12-30T22:59:41.543Z,8.5
2023-12-30T23:01:20.242Z,8.5
2023-12-30T23:02:58.969Z,8.5
2023-12-30T23:04:37.625Z,8.5
2023-12-30T23:06:16.335Z,8.6
2023-12-30T23:07:55.082Z,8.5
2023-12-30T23:09:32.290Z,8.6
2023-12-30T23:11:09.537Z,8.6
2023-12-30T23:12:48.207Z,8.6
2023-12-30T23:14:26.912Z,8.6
2023-12-30T23:16:05.648Z,8.6
2023-12-30T23:17:44.314Z,8.6
2023-12-30T23:19:23.016Z,8.6
2023-12-30T23:21:01.699Z,8.6
2023-12-30T23:22:40.402Z,8.6
2023-12-30T23:24:19.102Z,8.6
2023-12-30T23:25:57.799Z,8.7